Hlavní strana
METAR-TAF:

METAR-TAF

Letiště :

Letecká základna

Tafraoui, Alžírsko

zeměpisná šířka: 35-32-33N, zeměpisná délka: 000-31-56W, výška: 112 m

Aktuální stav počasí

Zpráva byla vytvořena před 21 minutami, v 09:00 UTC
Severovýchodní vítr 4 kt
Teplota 16°C
Vlhkost vzduchu 77%
Tlak 1023 hPa
Viditelnost: 8000 m
Oblačno až skoro zataženo ve výšce 2600 ft

METAR: DAOL 060900Z 04004KT 8000 BKN026 16/12 Q1023

Čas: 10:21 (09:21 UTC)


TAF: chybějící

Stav a předpovědi počasí z více než 4 000 letišť (zprávy METAR a TAF).

Červené a žluté tečky na mapě představují dostupné meteorologické stanice.

Když kurzor umístíte na tečku, zobrazí se název stanice.

Pak kliknutím zobrazíte stav a předpověď počasí.

Chcete-li změnit mapu, kliknutím na zelené tlačítko se znaménkem +mapu přiblížíte, kliknutím na zelené tlačítko se znaménkem – mapu oddálíte a kliknutím na zelené šipky přejdete na sousední mapy.


METAR-TAF: